Time;durP1;ratioP1;P1;durP2;ratioP2;P2;SDS_P1;SDS_P2;PMS_P1;PMS_P2;Temp;Humidity;BMP_temperature;BMP_pressure;BME280_temperature;BME280_humidity;BME280_pressure;Samples;Min_cycle;Max_cycle;Signal;HPM_P1;HPM_P2
2022/10/13 00:00:49;;;;;;;13.93;8.20;;;;;;;;;;5078693;28;20425;-84
2022/10/13 00:03:16;;;;;;;13.27;8.10;;;;;;;;;;5077494;28;20412;-83
2022/10/13 00:05:43;;;;;;;12.30;8.20;;;;;;;;;;5079000;28;20429;-83
2022/10/13 00:08:10;;;;;;;14.82;8.25;;;;;;;;;;5079530;28;20422;-82
2022/10/13 00:10:39;;;;;;;13.63;8.80;;;;;;;;;;5080507;28;20806;-83
2022/10/13 00:13:05;;;;;;;16.65;8.13;;;;;;;;;;5082603;28;20422;-83
2022/10/13 00:15:32;;;;;;;13.65;8.20;;;;;;;;;;5077002;28;20424;-83
2022/10/13 00:17:58;;;;;;;16.37;8.23;;;;;;;;;;5079973;28;20511;-83
2022/10/13 00:20:25;;;;;;;13.88;8.23;;;;;;;;;;5078740;28;20427;-83
2022/10/13 00:22:51;;;;;;;14.23;8.40;;;;;;;;;;5079009;28;20960;-83
2022/10/13 00:25:17;;;;;;;15.23;9.00;;;;;;;;;;5080886;28;20426;-83
2022/10/13 00:27:45;;;;;;;10.65;7.93;;;;;;;;;;5080038;28;20431;-83
2022/10/13 00:30:14;;;;;;;14.02;9.10;;;;;;;;;;5086086;28;20421;-82
2022/10/13 00:32:40;;;;;;;15.52;8.40;;;;;;;;;;5084251;28;20496;-83
2022/10/13 00:35:07;;;;;;;15.93;8.10;;;;;;;;;;5083059;28;20426;-83
2022/10/13 00:37:34;;;;;;;10.80;7.90;;;;;;;;;;5082089;28;20423;-83
2022/10/13 00:40:00;;;;;;;13.07;8.30;;;;;;;;;;5082939;28;20435;-83
2022/10/13 00:42:26;;;;;;;14.60;8.60;;;;;;;;;;5083577;28;20421;-84
2022/10/13 00:45:07;;;;;;;14.90;8.65;;;;;;;;;;5083033;28;20434;-83
2022/10/13 00:47:34;;;;;;;15.05;8.50;;;;;;;;;;5081609;28;20427;-83
2022/10/13 00:50:01;;;;;;;15.23;7.90;;;;;;;;;;5079823;28;20503;-84
2022/10/13 00:52:28;;;;;;;13.83;7.87;;;;;;;;;;5081671;28;21106;-82
2022/10/13 00:54:57;;;;;;;13.98;8.60;;;;;;;;;;5081588;28;20950;-83
2022/10/13 00:57:23;;;;;;;13.43;8.17;;;;;;;;;;5084691;28;20427;-83
2022/10/13 00:59:50;;;;;;;12.50;8.05;;;;;;;;;;5082235;28;20416;-83
2022/10/13 01:02:18;;;;;;;15.25;8.77;;;;;;;;;;5083123;28;20453;-83
2022/10/13 01:04:47;;;;;;;13.98;8.70;;;;;;;;;;5083667;28;20429;-83
2022/10/13 01:07:16;;;;;;;14.18;8.70;;;;;;;;;;5083590;28;20430;-83
2022/10/13 01:09:44;;;;;;;13.07;8.50;;;;;;;;;;5079593;28;20954;-83
2022/10/13 01:12:17;;;;;;;16.00;8.70;;;;;;;;;;5078639;28;20428;-83
2022/10/13 01:14:46;;;;;;;14.55;8.27;;;;;;;;;;5082703;28;20942;-83
2022/10/13 01:17:18;;;;;;;16.00;9.18;;;;;;;;;;5082547;28;20803;-83
2022/10/13 01:19:59;;;;;;;14.60;8.40;;;;;;;;;;5082646;28;22038;-83
2022/10/13 01:22:38;;;;;;;12.45;8.90;;;;;;;;;;5083724;28;20458;-83
2022/10/13 01:25:11;;;;;;;11.70;8.60;;;;;;;;;;5079582;28;20414;-83
2022/10/13 01:27:50;;;;;;;13.82;8.30;;;;;;;;;;5077170;28;20428;-84
2022/10/13 01:30:19;;;;;;;17.50;8.47;;;;;;;;;;5077811;28;20849;-83
2022/10/13 01:32:59;;;;;;;14.55;8.50;;;;;;;;;;5081459;28;20427;-84
2022/10/13 01:35:31;;;;;;;15.23;8.90;;;;;;;;;;5080239;28;20425;-83
2022/10/13 01:38:05;;;;;;;15.60;9.10;;;;;;;;;;5084448;28;20793;-83
2022/10/13 01:40:36;;;;;;;15.68;9.45;;;;;;;;;;5082225;28;20456;-83
2022/10/13 01:43:04;;;;;;;16.65;9.65;;;;;;;;;;5083027;28;20406;-84
2022/10/13 01:45:35;;;;;;;15.38;8.90;;;;;;;;;;5079584;28;20427;-83
2022/10/13 01:48:03;;;;;;;12.32;9.32;;;;;;;;;;5081627;28;20416;-83
2022/10/13 01:50:30;;;;;;;17.88;10.40;;;;;;;;;;5080462;28;20431;-83
2022/10/13 01:52:58;;;;;;;12.27;9.13;;;;;;;;;;5081099;28;20432;-83
2022/10/13 01:55:24;;;;;;;14.30;9.75;;;;;;;;;;5081346;28;20934;-83
2022/10/13 01:57:51;;;;;;;15.87;9.70;;;;;;;;;;5080015;28;20438;-82
2022/10/13 02:00:18;;;;;;;16.77;9.88;;;;;;;;;;5079321;28;20429;-82
2022/10/13 02:02:52;;;;;;;14.23;10.20;;;;;;;;;;5079049;28;20437;-83
2022/10/13 02:05:27;;;;;;;14.30;9.23;;;;;;;;;;5079929;28;20430;-84
2022/10/13 02:08:01;;;;;;;15.60;9.93;;;;;;;;;;5080524;28;20431;-84
2022/10/13 02:10:30;;;;;;;15.63;10.85;;;;;;;;;;5084225;28;20935;-83
2022/10/13 02:12:59;;;;;;;15.40;10.23;;;;;;;;;;5080926;28;20459;-83
2022/10/13 02:15:28;;;;;;;18.98;11.02;;;;;;;;;;5076641;28;20431;-84
2022/10/13 02:17:56;;;;;;;15.95;10.20;;;;;;;;;;5079711;28;20439;-83
2022/10/13 02:20:22;;;;;;;17.58;10.93;;;;;;;;;;5079313;28;20460;-83
2022/10/13 02:22:53;;;;;;;18.23;10.23;;;;;;;;;;5079008;28;20473;-83
2022/10/13 02:25:19;;;;;;;16.90;10.57;;;;;;;;;;5082542;28;20429;-83
2022/10/13 02:27:45;;;;;;;16.98;11.15;;;;;;;;;;5078764;28;20489;-83
2022/10/13 02:30:21;;;;;;;17.40;10.55;;;;;;;;;;5080867;28;20430;-83
2022/10/13 02:32:47;;;;;;;19.05;10.02;;;;;;;;;;5081382;28;20427;-83
2022/10/13 02:35:15;;;;;;;16.30;10.30;;;;;;;;;;5079915;28;20427;-83
2022/10/13 02:37:41;;;;;;;16.60;10.70;;;;;;;;;;5079882;28;20433;-83
2022/10/13 02:40:10;;;;;;;17.33;10.48;;;;;;;;;;5080137;28;20427;-84
2022/10/13 02:42:36;;;;;;;18.90;11.30;;;;;;;;;;5079800;28;20434;-83
2022/10/13 02:45:03;;;;;;;21.70;12.27;;;;;;;;;;5085993;28;20446;-83
2022/10/13 02:47:29;;;;;;;19.75;11.57;;;;;;;;;;5080358;28;20422;-83
2022/10/13 02:49:56;;;;;;;16.00;10.80;;;;;;;;;;5079111;28;20929;-83
2022/10/13 02:52:23;;;;;;;19.50;11.07;;;;;;;;;;5083970;28;20414;-83
2022/10/13 02:54:50;;;;;;;22.73;11.60;;;;;;;;;;5081099;28;20430;-83
2022/10/13 02:57:17;;;;;;;18.25;11.20;;;;;;;;;;5079124;28;20463;-83
2022/10/13 02:59:44;;;;;;;17.83;11.15;;;;;;;;;;5079915;28;20503;-84
2022/10/13 03:02:11;;;;;;;16.63;11.57;;;;;;;;;;5077130;28;20812;-83
2022/10/13 03:04:37;;;;;;;18.70;11.48;;;;;;;;;;5077775;28;20427;-83
2022/10/13 03:07:04;;;;;;;15.33;11.37;;;;;;;;;;5080694;28;20430;-84
2022/10/13 03:09:32;;;;;;;18.27;11.00;;;;;;;;;;5081466;28;20424;-84
2022/10/13 03:11:58;;;;;;;21.50;11.90;;;;;;;;;;5079290;28;20476;-83
2022/10/13 03:14:24;;;;;;;21.13;11.95;;;;;;;;;;5080704;28;20420;-83
2022/10/13 03:16:51;;;;;;;24.90;12.30;;;;;;;;;;5081637;28;20423;-82
2022/10/13 03:19:18;;;;;;;19.70;12.13;;;;;;;;;;5078419;28;20777;-83
2022/10/13 03:21:44;;;;;;;21.25;12.95;;;;;;;;;;5113538;27;20432;-83
2022/10/13 03:24:11;;;;;;;24.40;13.35;;;;;;;;;;5080541;28;20414;-83
2022/10/13 03:26:38;;;;;;;19.52;13.20;;;;;;;;;;5079059;28;20931;-84
2022/10/13 03:29:05;;;;;;;23.73;13.38;;;;;;;;;;5081223;28;20402;-83
2022/10/13 03:31:31;;;;;;;26.65;13.88;;;;;;;;;;5076554;28;20439;-84
2022/10/13 03:33:58;;;;;;;19.65;13.27;;;;;;;;;;5079798;28;20419;-84
2022/10/13 03:36:24;;;;;;;23.85;13.63;;;;;;;;;;5079135;28;20435;-83
2022/10/13 03:38:50;;;;;;;24.95;13.75;;;;;;;;;;5083062;28;20428;-83
2022/10/13 03:41:18;;;;;;;22.45;13.90;;;;;;;;;;5082267;28;20414;-84
2022/10/13 03:43:46;;;;;;;21.33;14.30;;;;;;;;;;5079705;28;20431;-83
2022/10/13 03:46:13;;;;;;;25.10;14.40;;;;;;;;;;5079295;28;20923;-84
2022/10/13 03:48:40;;;;;;;22.60;14.13;;;;;;;;;;5076309;28;20420;-83
2022/10/13 03:51:06;;;;;;;21.42;15.10;;;;;;;;;;5079591;28;20442;-83
2022/10/13 03:53:33;;;;;;;22.05;14.32;;;;;;;;;;5075803;28;20437;-83
2022/10/13 03:55:59;;;;;;;21.23;14.32;;;;;;;;;;5079359;28;20415;-83
2022/10/13 03:58:27;;;;;;;27.40;14.60;;;;;;;;;;5078579;28;20407;-84
2022/10/13 04:00:55;;;;;;;20.17;14.85;;;;;;;;;;5079099;28;20928;-83
2022/10/13 04:03:21;;;;;;;28.00;14.93;;;;;;;;;;5077181;28;20415;-84
2022/10/13 04:05:48;;;;;;;21.83;14.25;;;;;;;;;;5077630;28;20427;-83
2022/10/13 04:08:14;;;;;;;22.48;13.60;;;;;;;;;;5077541;28;20417;-83
2022/10/13 04:10:41;;;;;;;19.80;13.50;;;;;;;;;;5080135;28;20445;-83
2022/10/13 04:13:08;;;;;;;20.77;16.23;;;;;;;;;;5078874;28;20414;-83
2022/10/13 04:15:37;;;;;;;23.77;15.52;;;;;;;;;;5082617;28;20954;-82
2022/10/13 04:18:05;;;;;;;24.33;16.17;;;;;;;;;;5082426;28;20406;-84
2022/10/13 04:20:35;;;;;;;24.17;15.65;;;;;;;;;;5076730;28;20424;-84
2022/10/13 04:23:01;;;;;;;25.13;15.70;;;;;;;;;;5075332;28;20766;-82
2022/10/13 04:25:27;;;;;;;23.70;15.77;;;;;;;;;;5078584;28;20431;-83
2022/10/13 04:27:55;;;;;;;27.15;15.35;;;;;;;;;;5079220;28;20436;-83
2022/10/13 04:30:22;;;;;;;25.42;15.38;;;;;;;;;;5078529;28;20429;-83
2022/10/13 04:32:49;;;;;;;26.40;16.60;;;;;;;;;;5073845;28;20457;-83
2022/10/13 04:35:17;;;;;;;25.77;15.40;;;;;;;;;;5081997;28;20911;-83
2022/10/13 04:37:43;;;;;;;22.93;15.90;;;;;;;;;;5077194;28;20484;-83
2022/10/13 04:40:10;;;;;;;27.00;15.65;;;;;;;;;;5079636;28;20440;-84
2022/10/13 04:42:36;;;;;;;23.52;15.43;;;;;;;;;;5082595;28;20414;-83
2022/10/13 04:45:03;;;;;;;22.58;15.20;;;;;;;;;;5081406;28;20424;-84
2022/10/13 04:47:29;;;;;;;25.48;16.60;;;;;;;;;;5077503;28;20435;-84
2022/10/13 04:49:55;;;;;;;29.42;17.30;;;;;;;;;;5078889;28;20432;-85
2022/10/13 04:52:23;;;;;;;24.50;17.45;;;;;;;;;;5078575;28;20431;-83
2022/10/13 04:54:49;;;;;;;21.85;15.52;;;;;;;;;;5077762;28;20463;-83
2022/10/13 04:57:16;;;;;;;29.20;16.33;;;;;;;;;;5078610;28;20415;-83
2022/10/13 04:59:42;;;;;;;25.23;17.05;;;;;;;;;;5080200;28;20422;-84
2022/10/13 05:02:09;;;;;;;26.95;17.17;;;;;;;;;;5077042;28;20422;-82
2022/10/13 05:04:35;;;;;;;29.05;17.08;;;;;;;;;;5097877;28;20412;-84
2022/10/13 05:07:03;;;;;;;22.93;15.87;;;;;;;;;;5081509;28;20414;-83
2022/10/13 05:09:31;;;;;;;25.90;16.70;;;;;;;;;;5079177;28;20938;-83
2022/10/13 05:11:57;;;;;;;28.42;16.80;;;;;;;;;;5080037;28;20424;-84
2022/10/13 05:14:24;;;;;;;31.40;18.00;;;;;;;;;;5083872;28;20414;-84
2022/10/13 05:16:50;;;;;;;27.43;18.20;;;;;;;;;;5085755;28;20466;-84
2022/10/13 05:19:17;;;;;;;29.73;18.10;;;;;;;;;;5083179;28;20449;-84
2022/10/13 05:21:43;;;;;;;27.95;17.77;;;;;;;;;;5081778;28;20462;-83
2022/10/13 05:24:12;;;;;;;28.17;17.27;;;;;;;;;;5082015;28;20499;-84
2022/10/13 05:26:40;;;;;;;27.25;17.98;;;;;;;;;;5082057;28;20436;-83
2022/10/13 05:29:07;;;;;;;25.77;17.95;;;;;;;;;;5082725;28;20426;-82
2022/10/13 05:31:34;;;;;;;26.70;17.67;;;;;;;;;;5081258;28;20423;-83
2022/10/13 05:34:01;;;;;;;27.02;17.50;;;;;;;;;;5083696;28;20434;-83
2022/10/13 05:36:28;;;;;;;26.70;17.55;;;;;;;;;;5078833;28;20431;-84
2022/10/13 05:38:56;;;;;;;33.10;19.70;;;;;;;;;;5083070;28;20443;-83
2022/10/13 05:41:23;;;;;;;26.88;19.33;;;;;;;;;;5082161;28;20437;-83
2022/10/13 05:43:51;;;;;;;31.65;19.65;;;;;;;;;;5079955;28;20417;-83
2022/10/13 05:46:17;;;;;;;29.23;18.83;;;;;;;;;;5079228;28;20435;-83
2022/10/13 05:48:44;;;;;;;35.83;20.00;;;;;;;;;;5081043;28;20420;-82
2022/10/13 05:51:12;;;;;;;30.95;18.67;;;;;;;;;;5079790;28;20422;-83
2022/10/13 05:53:40;;;;;;;34.55;21.42;;;;;;;;;;5079529;28;20465;-83
2022/10/13 05:56:08;;;;;;;30.17;19.20;;;;;;;;;;5082705;28;20416;-83
2022/10/13 05:58:36;;;;;;;30.52;19.08;;;;;;;;;;5080054;28;20414;-84
2022/10/13 06:01:05;;;;;;;30.90;19.98;;;;;;;;;;5078147;28;20807;-83
2022/10/13 06:03:32;;;;;;;31.13;19.57;;;;;;;;;;5084064;28;20418;-84
2022/10/13 06:05:58;;;;;;;31.33;20.57;;;;;;;;;;5079052;28;20495;-83
2022/10/13 06:08:24;;;;;;;34.08;20.88;;;;;;;;;;5083238;28;20424;-83
2022/10/13 06:10:55;;;;;;;35.40;22.23;;;;;;;;;;5081935;28;20421;-84
2022/10/13 06:13:21;;;;;;;34.42;21.48;;;;;;;;;;5080518;28;20425;-83
2022/10/13 06:15:47;;;;;;;37.17;21.13;;;;;;;;;;5083825;28;20430;-83
2022/10/13 06:18:15;;;;;;;31.13;21.10;;;;;;;;;;5081153;28;20419;-82
2022/10/13 06:20:42;;;;;;;31.30;21.08;;;;;;;;;;5083450;28;20427;-83
2022/10/13 06:23:09;;;;;;;37.28;21.65;;;;;;;;;;5081485;28;20411;-83
2022/10/13 06:25:35;;;;;;;34.38;21.83;;;;;;;;;;5081650;28;20431;-82
2022/10/13 06:28:02;;;;;;;34.85;21.38;;;;;;;;;;5080054;28;20416;-83
2022/10/13 06:30:28;;;;;;;34.03;21.55;;;;;;;;;;5082220;28;20433;-83
2022/10/13 06:32:55;;;;;;;34.38;21.42;;;;;;;;;;5080457;28;20431;-84
2022/10/13 06:35:23;;;;;;;34.85;21.55;;;;;;;;;;5080065;28;20435;-84
2022/10/13 06:37:51;;;;;;;34.60;20.88;;;;;;;;;;5074923;28;20424;-83
2022/10/13 06:40:18;;;;;;;32.70;21.50;;;;;;;;;;5082110;28;20499;-83
2022/10/13 06:42:50;;;;;;;34.47;22.52;;;;;;;;;;5080923;28;20428;-84
2022/10/13 06:45:18;;;;;;;32.65;21.83;;;;;;;;;;5082868;28;20435;-84
2022/10/13 06:47:44;;;;;;;35.47;22.45;;;;;;;;;;5080019;28;20438;-84
2022/10/13 06:50:11;;;;;;;33.00;21.73;;;;;;;;;;5082672;28;20406;-84
2022/10/13 06:52:39;;;;;;;35.53;23.30;;;;;;;;;;5084084;28;20499;-84
2022/10/13 06:55:05;;;;;;;39.35;22.20;;;;;;;;;;5079928;28;20433;-84
2022/10/13 06:57:34;;;;;;;34.67;22.02;;;;;;;;;;5082164;28;20404;-83
2022/10/13 07:00:00;;;;;;;34.63;23.42;;;;;;;;;;5081390;28;20429;-81
2022/10/13 07:02:27;;;;;;;33.50;23.10;;;;;;;;;;5077957;28;20423;-81
2022/10/13 07:04:53;;;;;;;36.45;23.35;;;;;;;;;;5082770;28;20425;-84
2022/10/13 07:07:20;;;;;;;33.60;22.00;;;;;;;;;;5080949;28;20413;-84
2022/10/13 07:09:48;;;;;;;38.58;23.15;;;;;;;;;;5082468;28;20423;-83
2022/10/13 07:12:14;;;;;;;39.83;25.40;;;;;;;;;;5087156;28;20419;-83
2022/10/13 07:14:41;;;;;;;35.80;23.30;;;;;;;;;;5084406;28;20915;-81
2022/10/13 07:17:07;;;;;;;34.20;22.25;;;;;;;;;;5082513;28;20429;-82
2022/10/13 07:19:34;;;;;;;34.28;23.90;;;;;;;;;;5078538;28;20429;-81
2022/10/13 07:22:00;;;;;;;31.73;22.52;;;;;;;;;;5083449;28;20429;-83
2022/10/13 07:24:27;;;;;;;36.30;23.10;;;;;;;;;;5082232;28;20506;-83
2022/10/13 07:26:55;;;;;;;37.60;23.13;;;;;;;;;;5081283;28;20427;-84
2022/10/13 07:29:21;;;;;;;34.70;24.33;;;;;;;;;;5081781;28;20934;-82
2022/10/13 07:31:48;;;;;;;37.90;24.50;;;;;;;;;;5078879;28;20433;-84
2022/10/13 07:34:15;;;;;;;39.38;24.90;;;;;;;;;;5085809;28;20423;-84
2022/10/13 07:36:42;;;;;;;38.78;24.17;;;;;;;;;;5082213;28;20419;-83
2022/10/13 07:39:09;;;;;;;34.75;24.90;;;;;;;;;;5081928;28;20430;-83
2022/10/13 07:41:36;;;;;;;39.13;25.40;;;;;;;;;;5084811;28;20420;-83
2022/10/13 07:44:03;;;;;;;41.15;26.20;;;;;;;;;;5083097;28;20514;-83
2022/10/13 07:46:30;;;;;;;35.90;24.55;;;;;;;;;;5076883;28;20428;-83
2022/10/13 07:48:56;;;;;;;37.08;26.23;;;;;;;;;;5083911;28;20420;-83
2022/10/13 07:51:23;;;;;;;35.80;25.20;;;;;;;;;;5081210;28;20517;-83
2022/10/13 07:53:51;;;;;;;38.28;25.50;;;;;;;;;;5082448;28;20426;-83
2022/10/13 07:56:17;;;;;;;36.87;25.87;;;;;;;;;;5081993;28;20604;-83
2022/10/13 07:58:44;;;;;;;39.80;24.70;;;;;;;;;;5080563;28;20421;-83
2022/10/13 08:01:13;;;;;;;40.05;25.90;;;;;;;;;;5078492;28;20432;-83
2022/10/13 08:03:40;;;;;;;37.72;24.67;;;;;;;;;;5082411;28;20787;-83
2022/10/13 08:06:07;;;;;;;35.88;24.80;;;;;;;;;;5077999;28;20436;-83
2022/10/13 08:08:34;;;;;;;37.88;24.92;;;;;;;;;;5082150;27;20963;-83
2022/10/13 08:11:01;;;;;;;40.30;25.70;;;;;;;;;;5082203;28;20453;-83
2022/10/13 08:13:27;;;;;;;36.55;24.48;;;;;;;;;;5079096;28;20438;-82
2022/10/13 08:15:54;;;;;;;34.05;25.13;;;;;;;;;;5079812;28;20410;-83
2022/10/13 08:18:21;;;;;;;36.75;26.02;;;;;;;;;;5079656;28;20433;-81
2022/10/13 08:20:48;;;;;;;34.25;25.50;;;;;;;;;;5082121;28;20435;-83
2022/10/13 08:23:14;;;;;;;37.27;25.63;;;;;;;;;;5078747;28;20412;-82
2022/10/13 08:25:41;;;;;;;33.97;24.80;;;;;;;;;;5080769;28;20427;-82
2022/10/13 08:28:15;;;;;;;39.87;26.70;;;;;;;;;;5077160;28;20422;-82
2022/10/13 08:30:41;;;;;;;38.65;24.88;;;;;;;;;;5083902;28;20439;-82
2022/10/13 08:33:07;;;;;;;38.70;25.58;;;;;;;;;;5082840;28;20410;-82
2022/10/13 08:35:35;;;;;;;34.08;24.95;;;;;;;;;;5081303;28;20419;-82
2022/10/13 08:38:01;;;;;;;34.57;23.83;;;;;;;;;;5082174;28;20943;-83
2022/10/13 08:40:28;;;;;;;37.15;25.60;;;;;;;;;;5077133;28;20435;-82
2022/10/13 08:42:54;;;;;;;44.30;26.15;;;;;;;;;;5082281;28;20791;-83
2022/10/13 08:45:23;;;;;;;41.65;25.77;;;;;;;;;;5080551;28;20431;-82
2022/10/13 08:47:52;;;;;;;44.42;27.10;;;;;;;;;;5080754;28;20461;-83
2022/10/13 08:50:20;;;;;;;39.83;26.10;;;;;;;;;;5082132;28;20431;-81
2022/10/13 08:52:49;;;;;;;37.25;25.98;;;;;;;;;;5084245;28;20415;-81
2022/10/13 08:55:20;;;;;;;35.05;25.05;;;;;;;;;;5084958;28;20940;-81
2022/10/13 08:57:46;;;;;;;38.47;26.27;;;;;;;;;;5081388;28;20421;-81
2022/10/13 09:00:13;;;;;;;40.78;26.92;;;;;;;;;;5083248;28;20419;-81
2022/10/13 09:02:41;;;;;;;38.25;25.85;;;;;;;;;;5085615;28;20426;-81
2022/10/13 09:05:12;;;;;;;36.97;24.50;;;;;;;;;;5084287;28;20427;-83
2022/10/13 09:07:39;;;;;;;35.10;24.45;;;;;;;;;;5081631;28;20434;-81
2022/10/13 09:10:09;;;;;;;34.33;23.70;;;;;;;;;;5084409;28;20422;-84
2022/10/13 09:12:35;;;;;;;35.78;25.05;;;;;;;;;;5085142;28;20401;-81
2022/10/13 09:15:04;;;;;;;41.85;26.00;;;;;;;;;;5082862;28;20442;-81
2022/10/13 09:17:31;;;;;;;36.78;25.55;;;;;;;;;;5083317;28;20792;-81
2022/10/13 09:19:59;;;;;;;35.95;25.00;;;;;;;;;;5080228;28;20768;-81
2022/10/13 09:22:26;;;;;;;37.08;27.38;;;;;;;;;;5081599;28;20421;-81
2022/10/13 09:25:04;;;;;;;36.03;26.13;;;;;;;;;;5083499;28;20427;-81
2022/10/13 09:27:41;;;;;;;38.42;26.60;;;;;;;;;;5082710;27;20784;-82
2022/10/13 09:30:24;;;;;;;40.70;25.70;;;;;;;;;;5080933;28;20415;-81
2022/10/13 09:32:51;;;;;;;36.90;24.85;;;;;;;;;;5082913;28;20419;-81
2022/10/13 09:35:20;;;;;;;35.85;24.80;;;;;;;;;;5081943;28;21108;-82
2022/10/13 09:38:01;;;;;;;37.20;24.58;;;;;;;;;;5085750;28;20421;-82
2022/10/13 09:40:30;;;;;;;38.95;26.88;;;;;;;;;;5083991;28;20427;-81
2022/10/13 09:42:58;;;;;;;40.17;26.35;;;;;;;;;;5080824;28;20794;-82
2022/10/13 09:45:25;;;;;;;35.97;23.63;;;;;;;;;;5079610;28;20429;-81
2022/10/13 09:47:52;;;;;;;39.17;25.33;;;;;;;;;;5083313;28;20450;-82
2022/10/13 09:50:20;;;;;;;36.35;25.08;;;;;;;;;;5084381;28;20435;-82
2022/10/13 09:52:47;;;;;;;39.60;25.23;;;;;;;;;;5081181;28;20951;-81
2022/10/13 09:55:27;;;;;;;35.90;25.98;;;;;;;;;;5085330;28;20431;-84
2022/10/13 09:57:54;;;;;;;36.80;26.27;;;;;;;;;;5076903;28;20446;-82
2022/10/13 10:00:24;;;;;;;35.15;26.02;;;;;;;;;;5078837;28;20864;-81
2022/10/13 10:02:53;;;;;;;36.03;25.00;;;;;;;;;;5078043;28;20882;-84
2022/10/13 10:05:25;;;;;;;40.93;26.20;;;;;;;;;;5081285;28;20435;-83
2022/10/13 10:07:52;;;;;;;35.60;26.17;;;;;;;;;;5082711;28;20812;-81
2022/10/13 10:10:25;;;;;;;35.85;25.33;;;;;;;;;;5080378;28;20423;-82
2022/10/13 10:12:52;;;;;;;38.30;25.73;;;;;;;;;;5065263;28;20414;-84
2022/10/13 10:15:21;;;;;;;37.80;26.55;;;;;;;;;;5081325;28;20936;-83
2022/10/13 10:17:51;;;;;;;35.63;25.75;;;;;;;;;;5083468;28;20412;-81
2022/10/13 10:20:28;;;;;;;36.75;24.95;;;;;;;;;;5080648;28;20429;-82
2022/10/13 10:22:59;;;;;;;35.27;25.50;;;;;;;;;;5078785;28;20435;-82
2022/10/13 10:25:31;;;;;;;34.85;24.95;;;;;;;;;;5078843;28;20511;-81
2022/10/13 10:28:05;;;;;;;41.30;25.05;;;;;;;;;;5081637;28;20408;-82
2022/10/13 10:30:35;;;;;;;32.40;24.30;;;;;;;;;;5080496;28;20495;-81
2022/10/13 10:33:04;;;;;;;36.67;24.80;;;;;;;;;;5077439;28;20417;-83
2022/10/13 10:35:36;;;;;;;33.45;24.42;;;;;;;;;;5080032;28;20444;-81
2022/10/13 10:38:09;;;;;;;34.90;24.25;;;;;;;;;;5081021;28;20936;-82
2022/10/13 10:40:38;;;;;;;36.20;23.42;;;;;;;;;;5079958;28;20430;-82
2022/10/13 10:43:25;;;;;;;37.55;24.42;;;;;;;;;;5080394;27;20421;-84
2022/10/13 10:45:55;;;;;;;37.30;25.88;;;;;;;;;;5074906;28;20440;-82
2022/10/13 10:48:24;;;;;;;44.13;29.08;;;;;;;;;;5082191;28;20429;-82
2022/10/13 10:50:51;;;;;;;35.10;25.00;;;;;;;;;;5081072;28;20430;-81
2022/10/13 10:53:20;;;;;;;35.20;25.10;;;;;;;;;;5082904;27;20425;-82
2022/10/13 10:55:50;;;;;;;37.25;25.15;;;;;;;;;;5082785;28;20429;-81
2022/10/13 10:58:24;;;;;;;39.20;26.38;;;;;;;;;;5083072;28;20419;-82
2022/10/13 11:00:53;;;;;;;37.10;26.60;;;;;;;;;;5081443;28;20422;-82
2022/10/13 11:03:28;;;;;;;33.72;23.42;;;;;;;;;;5077010;28;20430;-83
2022/10/13 11:06:03;;;;;;;37.10;25.40;;;;;;;;;;5080026;28;20515;-82
2022/10/13 11:08:30;;;;;;;31.48;24.30;;;;;;;;;;5080054;27;20480;-81
2022/10/13 11:11:15;;;;;;;33.35;23.80;;;;;;;;;;5075156;28;20426;-82
2022/10/13 11:13:50;;;;;;;33.67;23.80;;;;;;;;;;5080820;28;20427;-82
2022/10/13 11:16:27;;;;;;;34.45;24.35;;;;;;;;;;5077260;28;20427;-83
2022/10/13 11:19:27;;;;;;;34.38;24.08;;;;;;;;;;5078396;28;20426;-81
2022/10/13 11:22:23;;;;;;;33.40;22.55;;;;;;;;;;5078277;28;20438;-81
2022/10/13 11:24:51;;;;;;;34.20;24.00;;;;;;;;;;5077437;28;20439;-81
2022/10/13 11:27:32;;;;;;;33.63;23.23;;;;;;;;;;5079595;28;20422;-82
2022/10/13 11:29:59;;;;;;;31.45;22.40;;;;;;;;;;5068581;28;20774;-80
2022/10/13 11:32:43;;;;;;;35.15;22.73;;;;;;;;;;5077254;28;20421;-81
2022/10/13 11:35:19;;;;;;;28.52;22.65;;;;;;;;;;5064059;28;20810;-81
2022/10/13 11:37:54;;;;;;;29.83;21.17;;;;;;;;;;5076387;28;20438;-81
2022/10/13 11:40:24;;;;;;;31.25;22.60;;;;;;;;;;5077713;28;20502;-83
2022/10/13 11:43:02;;;;;;;29.13;22.15;;;;;;;;;;5078992;28;20495;-81
2022/10/13 11:45:44;;;;;;;29.50;22.10;;;;;;;;;;5077036;28;20583;-81
2022/10/13 11:48:28;;;;;;;28.80;22.27;;;;;;;;;;5076858;28;20511;-81
2022/10/13 11:51:03;;;;;;;33.05;20.40;;;;;;;;;;5075156;28;20489;-81
2022/10/13 11:53:34;;;;;;;26.67;21.15;;;;;;;;;;5079853;27;20430;-81
2022/10/13 11:56:01;;;;;;;28.38;19.73;;;;;;;;;;5077416;28;20431;-80
2022/10/13 11:58:29;;;;;;;25.77;20.05;;;;;;;;;;5079757;27;20429;-81
2022/10/13 12:00:56;;;;;;;27.10;19.08;;;;;;;;;;5084148;28;20518;-80
2022/10/13 12:03:25;;;;;;;25.30;19.80;;;;;;;;;;5073595;28;20507;-81
2022/10/13 12:05:52;;;;;;;30.73;21.83;;;;;;;;;;5076863;28;20450;-81
2022/10/13 12:08:20;;;;;;;30.00;24.08;;;;;;;;;;5077883;28;20580;-81
2022/10/13 12:10:51;;;;;;;40.30;26.98;;;;;;;;;;5078056;28;20491;-81
2022/10/13 12:13:20;;;;;;;37.78;24.77;;;;;;;;;;5076777;28;20423;-81
2022/10/13 12:15:47;;;;;;;32.00;25.27;;;;;;;;;;5076458;28;20427;-81
2022/10/13 12:18:23;;;;;;;29.83;23.45;;;;;;;;;;5077296;28;20488;-82
2022/10/13 12:20:53;;;;;;;34.47;24.08;;;;;;;;;;5080660;28;20425;-81
2022/10/13 12:23:21;;;;;;;41.35;29.00;;;;;;;;;;5071814;28;20444;-81
2022/10/13 12:25:48;;;;;;;43.13;33.95;;;;;;;;;;5077278;28;20426;-81
2022/10/13 12:28:18;;;;;;;37.08;29.83;;;;;;;;;;5079190;28;20449;-81
2022/10/13 12:30:51;;;;;;;28.52;22.88;;;;;;;;;;5077472;28;20489;-81
2022/10/13 12:33:20;;;;;;;29.00;21.60;;;;;;;;;;5077298;28;20483;-81
2022/10/13 12:35:46;;;;;;;29.55;22.30;;;;;;;;;;5078982;28;20432;-81
2022/10/13 12:38:15;;;;;;;30.55;21.83;;;;;;;;;;5079245;28;20429;-82
2022/10/13 12:40:43;;;;;;;31.35;21.88;;;;;;;;;;5076510;28;20437;-81
2022/10/13 12:43:18;;;;;;;28.95;23.45;;;;;;;;;;5075857;28;20435;-81
2022/10/13 12:45:44;;;;;;;25.75;21.90;;;;;;;;;;5078491;28;20433;-81
2022/10/13 12:48:26;;;;;;;26.52;20.95;;;;;;;;;;5076806;28;20429;-81
2022/10/13 12:50:52;;;;;;;25.83;20.13;;;;;;;;;;5076987;28;21027;-81
2022/10/13 12:53:21;;;;;;;26.35;19.52;;;;;;;;;;5078104;28;20416;-82
2022/10/13 12:55:51;;;;;;;24.00;19.50;;;;;;;;;;5076728;28;20444;-81
2022/10/13 12:58:22;;;;;;;25.77;19.35;;;;;;;;;;5074273;28;20421;-82
2022/10/13 13:00:55;;;;;;;25.63;19.48;;;;;;;;;;5077915;28;20422;-81
2022/10/13 13:03:22;;;;;;;25.35;18.63;;;;;;;;;;5077720;28;20506;-81
2022/10/13 13:05:50;;;;;;;22.40;18.70;;;;;;;;;;5077214;28;20434;-82
2022/10/13 13:08:23;;;;;;;22.15;17.70;;;;;;;;;;5079003;28;20465;-81
2022/10/13 13:10:55;;;;;;;24.77;18.40;;;;;;;;;;5075366;28;20421;-81
2022/10/13 13:13:22;;;;;;;28.58;18.73;;;;;;;;;;5076752;28;20442;-81
2022/10/13 13:15:49;;;;;;;21.85;18.30;;;;;;;;;;5078764;28;20435;-81
2022/10/13 13:18:30;;;;;;;27.35;17.50;;;;;;;;;;5075988;28;20422;-81
2022/10/13 13:20:56;;;;;;;25.35;18.83;;;;;;;;;;5078352;28;20427;-81
2022/10/13 13:23:32;;;;;;;26.88;18.35;;;;;;;;;;5077931;28;20418;-82
2022/10/13 13:26:03;;;;;;;28.92;19.30;;;;;;;;;;5078883;28;20425;-81
2022/10/13 13:28:30;;;;;;;24.83;19.05;;;;;;;;;;5075201;28;20426;-81
2022/10/13 13:30:57;;;;;;;29.90;20.10;;;;;;;;;;5079288;28;20807;-82
2022/10/13 13:33:23;;;;;;;29.38;21.05;;;;;;;;;;5079354;28;20505;-81
2022/10/13 13:35:49;;;;;;;26.67;19.52;;;;;;;;;;5082614;28;20422;-81
2022/10/13 13:38:16;;;;;;;26.77;20.60;;;;;;;;;;5079908;28;20425;-81
2022/10/13 13:40:42;;;;;;;30.73;20.25;;;;;;;;;;5079150;28;20429;-81
2022/10/13 13:43:10;;;;;;;25.98;19.00;;;;;;;;;;5085011;28;20426;-81
2022/10/13 13:45:37;;;;;;;27.23;19.10;;;;;;;;;;5082198;28;20450;-81
2022/10/13 13:48:03;;;;;;;25.70;19.10;;;;;;;;;;5080529;27;20434;-81
2022/10/13 13:50:32;;;;;;;28.50;18.35;;;;;;;;;;5077172;28;20763;-81
2022/10/13 13:52:59;;;;;;;26.42;19.17;;;;;;;;;;5082995;28;20422;-80
2022/10/13 13:55:26;;;;;;;24.13;18.50;;;;;;;;;;5079882;28;20423;-81
2022/10/13 13:57:52;;;;;;;25.55;17.58;;;;;;;;;;5079181;28;20435;-81
2022/10/13 14:00:20;;;;;;;22.30;18.08;;;;;;;;;;5079289;28;20428;-80
2022/10/13 14:02:46;;;;;;;25.23;16.97;;;;;;;;;;5081723;28;20435;-80
2022/10/13 14:05:13;;;;;;;21.77;16.95;;;;;;;;;;5079955;28;20426;-81
2022/10/13 14:07:40;;;;;;;25.80;16.10;;;;;;;;;;5080963;28;20427;-80
2022/10/13 14:10:07;;;;;;;23.73;17.35;;;;;;;;;;5085155;28;20434;-81
2022/10/13 14:12:33;;;;;;;23.63;17.85;;;;;;;;;;5080286;28;20423;-82
2022/10/13 14:14:59;;;;;;;24.67;17.65;;;;;;;;;;5076777;28;20431;-82
2022/10/13 14:17:28;;;;;;;25.40;18.55;;;;;;;;;;5075868;28;20431;-82
2022/10/13 14:19:54;;;;;;;24.40;18.52;;;;;;;;;;5081387;28;20442;-81
2022/10/13 14:22:23;;;;;;;24.63;16.45;;;;;;;;;;5080346;27;20891;-81
2022/10/13 14:24:49;;;;;;;21.75;16.50;;;;;;;;;;5085357;28;20410;-83
2022/10/13 14:27:16;;;;;;;25.92;17.63;;;;;;;;;;5076031;28;20424;-80